Time;durP1;ratioP1;P1;durP2;ratioP2;P2;SDS_P1;SDS_P2;PMS_P1;PMS_P2;Temp;Humidity;BMP_temperature;BMP_pressure;BME280_temperature;BME280_humidity;BME280_pressure;Samples;Min_cycle;Max_cycle;Signal;HPM_P1;HPM_P2
2024/02/23 00:02:08;;;;;;;0.30;0.30;;;;;;;8.23;68.35;94739.47;4899190;29;20489;-81
2024/02/23 00:04:36;;;;;;;0.20;0.00;;;;;;;8.14;68.92;94755.56;4898889;29;20413;-81
2024/02/23 00:07:04;;;;;;;0.20;0.10;;;;;;;8.05;69.57;94768.78;4899050;29;20720;-82
2024/02/23 00:09:33;;;;;;;0.60;0.10;;;;;;;7.99;68.76;94768.84;4899247;29;20083;-82
2024/02/23 00:12:01;;;;;;;0.40;0.08;;;;;;;7.95;69.34;94778.03;4898803;29;20091;-82
2024/02/23 00:14:30;;;;;;;1.20;0.10;;;;;;;7.90;69.85;94796.84;4898722;29;20067;-81
2024/02/23 00:16:58;;;;;;;0.00;0.00;;;;;;;7.85;70.34;94804.47;4898355;29;20055;-83
2024/02/23 00:19:26;;;;;;;0.20;0.10;;;;;;;7.80;69.50;94812.88;4898454;29;20084;-82
2024/02/23 00:21:54;;;;;;;0.20;0.00;;;;;;;7.74;69.72;94803.34;4898605;29;20052;-82
2024/02/23 00:24:21;;;;;;;0.60;0.10;;;;;;;7.67;69.75;94818.13;4898607;29;20463;-82
2024/02/23 00:26:51;;;;;;;0.43;0.10;;;;;;;7.59;68.87;94787.25;4898551;29;20137;-83
2024/02/23 00:29:19;;;;;;;0.20;0.00;;;;;;;7.52;70.53;94773.50;4898156;29;20497;-82
2024/02/23 00:31:46;;;;;;;0.10;0.10;;;;;;;7.52;70.09;94783.88;4897850;29;20056;-81
2024/02/23 00:34:14;;;;;;;0.17;0.08;;;;;;;7.51;69.99;94798.66;4898329;29;20063;-82
2024/02/23 00:36:44;;;;;;;1.35;0.13;;;;;;;7.55;71.23;94791.25;4898176;29;20143;-81
2024/02/23 00:39:11;;;;;;;0.30;0.15;;;;;;;7.60;71.95;94787.00;4898032;29;20076;-82
2024/02/23 00:41:39;;;;;;;0.43;0.40;;;;;;;7.63;71.66;94785.81;4898029;29;20112;-81
2024/02/23 00:44:08;;;;;;;0.82;0.10;;;;;;;7.67;72.43;94778.41;4897865;29;20104;-81
2024/02/23 00:46:36;;;;;;;0.52;0.10;;;;;;;7.69;72.27;94797.94;4897963;29;20509;-82
2024/02/23 00:49:03;;;;;;;0.38;0.10;;;;;;;7.72;71.88;94788.94;4898048;29;20230;-82
2024/02/23 00:51:31;;;;;;;0.65;0.10;;;;;;;7.73;71.47;94796.53;4897523;29;20056;-82
2024/02/23 00:53:59;;;;;;;0.10;0.05;;;;;;;7.75;72.12;94799.72;4897718;29;20432;-83
2024/02/23 00:56:27;;;;;;;0.00;0.00;;;;;;;7.78;72.04;94806.28;4897588;29;20087;-81
2024/02/23 00:59:08;;;;;;;1.40;0.20;;;;;;;7.77;70.97;94810.69;4898315;29;20045;-81
2024/02/23 01:01:36;;;;;;;2.40;0.20;;;;;;;7.76;70.48;94816.09;4898066;29;20053;-81
2024/02/23 01:04:04;;;;;;;0.40;0.10;;;;;;;7.72;71.38;94800.16;4897596;29;20421;-82
2024/02/23 01:06:32;;;;;;;0.98;0.10;;;;;;;7.73;70.59;94801.72;4897256;29;20072;-82
2024/02/23 01:08:59;;;;;;;0.28;0.20;;;;;;;7.71;71.18;94806.31;4898010;29;20135;-83
2024/02/23 01:11:27;;;;;;;0.90;0.10;;;;;;;7.69;71.10;94799.75;4898783;29;20112;-83
2024/02/23 01:13:54;;;;;;;0.00;0.00;;;;;;;7.69;71.88;94816.13;4897321;29;20085;-81
2024/02/23 01:16:23;;;;;;;0.70;0.00;;;;;;;7.70;71.03;94817.72;4897698;29;20097;-82
2024/02/23 01:18:51;;;;;;;0.30;0.20;;;;;;;7.72;70.97;94812.31;4897645;29;20139;-82
2024/02/23 01:21:19;;;;;;;0.65;0.10;;;;;;;7.73;71.64;94817.31;4912791;29;20057;-82
2024/02/23 01:23:46;;;;;;;0.35;0.10;;;;;;;7.77;72.22;94802.91;4912492;29;20064;-81
2024/02/23 01:26:14;;;;;;;0.17;0.03;;;;;;;7.77;71.20;94809.91;4898807;29;20088;-81
2024/02/23 01:28:42;;;;;;;0.57;0.10;;;;;;;7.75;71.77;94810.09;4898131;29;20440;-83
2024/02/23 01:31:11;;;;;;;0.38;0.10;;;;;;;7.76;71.03;94816.09;4897837;29;20052;-82
2024/02/23 01:33:40;;;;;;;0.63;0.10;;;;;;;7.77;71.25;94809.91;4897688;29;20056;-82
2024/02/23 01:36:08;;;;;;;0.40;0.00;;;;;;;7.76;70.57;94814.31;4897400;29;20049;-82
2024/02/23 01:38:37;;;;;;;0.10;0.00;;;;;;;7.75;70.02;94815.28;4897424;29;20056;-82
2024/02/23 01:41:05;;;;;;;0.28;0.00;;;;;;;7.76;71.02;94798.72;4897749;29;20084;-82
2024/02/23 01:43:32;;;;;;;1.27;0.35;;;;;;;7.79;72.31;94800.13;4897738;29;20056;-81
2024/02/23 01:46:00;;;;;;;0.75;0.20;;;;;;;7.81;72.69;94806.69;4897470;29;20052;-84
2024/02/23 01:48:28;;;;;;;3.58;0.60;;;;;;;7.84;73.41;94803.66;4898473;29;20135;-83
2024/02/23 01:50:57;;;;;;;3.90;0.85;;;;;;;7.83;73.42;94804.69;4900520;29;20089;-82
2024/02/23 01:53:26;;;;;;;0.93;0.13;;;;;;;7.85;73.02;94812.25;4907775;29;20144;-82
2024/02/23 01:55:55;;;;;;;0.45;0.08;;;;;;;7.86;72.82;94813.84;4901112;29;20053;-81
2024/02/23 01:58:23;;;;;;;0.55;0.17;;;;;;;7.87;71.66;94817.22;4897836;29;20105;-82
2024/02/23 02:00:50;;;;;;;0.22;0.20;;;;;;;7.87;71.95;94827.63;4897806;29;20139;-81
2024/02/23 02:03:18;;;;;;;0.68;0.20;;;;;;;7.86;71.71;94820.84;4897994;29;20048;-82
2024/02/23 02:05:46;;;;;;;1.05;0.05;;;;;;;7.78;70.70;94814.91;4897145;29;20057;-83
2024/02/23 02:08:16;;;;;;;0.73;0.20;;;;;;;7.76;71.63;94822.09;4897263;29;20489;-82
2024/02/23 02:10:45;;;;;;;0.55;0.10;;;;;;;7.76;71.91;94832.47;4897491;29;20048;-82
2024/02/23 02:13:13;;;;;;;0.38;0.08;;;;;;;7.74;70.65;94821.50;4897525;29;20056;-82
2024/02/23 02:15:40;;;;;;;0.30;0.10;;;;;;;7.72;70.80;94836.50;4897536;29;20052;-83
2024/02/23 02:18:08;;;;;;;0.65;0.20;;;;;;;7.70;71.29;94828.09;4897504;29;20106;-83
2024/02/23 02:20:37;;;;;;;0.75;0.20;;;;;;;7.68;71.90;94832.72;4900902;29;20091;-82
2024/02/23 02:23:07;;;;;;;3.00;0.20;;;;;;;7.69;71.26;94830.91;4900720;29;20053;-81
2024/02/23 02:25:36;;;;;;;0.57;0.20;;;;;;;7.66;70.87;94826.94;4900230;29;20448;-82
2024/02/23 02:28:07;;;;;;;3.92;0.20;;;;;;;7.66;71.39;94813.94;4900671;29;20052;-82
2024/02/23 02:30:35;;;;;;;2.25;0.35;;;;;;;7.64;70.99;94818.56;4900558;29;20060;-83
2024/02/23 02:33:02;;;;;;;4.30;0.55;;;;;;;7.65;70.83;94822.72;4900601;29;20492;-81
2024/02/23 02:35:30;;;;;;;0.30;0.10;;;;;;;7.64;70.67;94834.13;4900387;29;20089;-83
2024/02/23 02:37:58;;;;;;;1.27;0.30;;;;;;;7.61;70.82;94834.53;4900375;29;20080;-82
2024/02/23 02:40:25;;;;;;;1.27;0.30;;;;;;;7.58;70.10;94821.97;4900241;29;20045;-81
2024/02/23 02:42:54;;;;;;;3.10;0.30;;;;;;;7.58;69.69;94819.38;4900016;29;20052;-82
2024/02/23 02:45:22;;;;;;;6.35;0.60;;;;;;;7.57;70.28;94812.59;4900199;29;20585;-82
2024/02/23 02:47:50;;;;;;;1.85;0.30;;;;;;;7.54;68.81;94818.19;4900155;29;20082;-82
2024/02/23 02:50:18;;;;;;;0.98;0.25;;;;;;;7.50;68.35;94819.59;4900125;29;20120;-81
2024/02/23 02:52:46;;;;;;;0.70;0.20;;;;;;;7.48;68.37;94813.81;4900171;29;20053;-82
2024/02/23 02:55:14;;;;;;;2.03;0.85;;;;;;;7.46;68.12;94821.81;4899681;29;20057;-82
2024/02/23 02:57:41;;;;;;;0.55;0.10;;;;;;;7.44;68.06;94823.81;4899820;29;20414;-82
2024/02/23 03:00:13;;;;;;;0.75;0.28;;;;;;;7.43;67.96;94836.00;4899947;29;20048;-81
2024/02/23 03:02:40;;;;;;;1.17;0.45;;;;;;;7.41;68.17;94829.41;4899695;29;20048;-81
2024/02/23 03:05:09;;;;;;;1.33;0.10;;;;;;;7.42;68.17;94842.19;4899600;29;20060;-81
2024/02/23 03:07:36;;;;;;;1.85;0.47;;;;;;;7.41;67.85;94832.81;4900166;29;20085;-82
2024/02/23 03:10:05;;;;;;;1.10;0.40;;;;;;;7.41;67.85;94832.00;4899778;29;20486;-82
2024/02/23 03:12:32;;;;;;;1.30;0.30;;;;;;;7.41;69.11;94822.44;4900021;29;20052;-81
2024/02/23 03:15:02;;;;;;;2.25;0.40;;;;;;;7.41;69.17;94827.63;4899546;29;20148;-82
2024/02/23 03:17:30;;;;;;;2.97;0.40;;;;;;;7.38;67.94;94828.03;4902323;29;20545;-82
2024/02/23 03:19:58;;;;;;;1.05;0.20;;;;;;;7.36;69.55;94830.03;4908738;29;20093;-81
2024/02/23 03:22:26;;;;;;;1.83;0.40;;;;;;;7.35;68.50;94838.81;4899547;29;20104;-82
2024/02/23 03:24:54;;;;;;;0.60;0.20;;;;;;;7.32;67.53;94847.00;4899207;29;20569;-83
2024/02/23 03:27:28;;;;;;;2.88;0.20;;;;;;;7.31;67.60;94824.66;4899968;29;20139;-82
2024/02/23 03:29:56;;;;;;;2.85;0.63;;;;;;;7.30;68.12;94827.47;4898744;29;20049;-81
2024/02/23 03:32:23;;;;;;;2.45;0.40;;;;;;;7.28;69.02;94835.47;4899119;29;20087;-82
2024/02/23 03:34:52;;;;;;;2.42;0.40;;;;;;;7.23;67.53;94837.84;4899273;29;20180;-81
2024/02/23 03:37:20;;;;;;;1.95;0.13;;;;;;;7.19;67.40;94840.06;4899131;29;20059;-81
2024/02/23 03:39:49;;;;;;;1.02;0.22;;;;;;;7.19;69.12;94836.66;4902777;29;20053;-82
2024/02/23 03:42:16;;;;;;;0.25;0.10;;;;;;;7.22;68.33;94838.88;4901760;29;20147;-82
2024/02/23 03:44:44;;;;;;;1.95;0.45;;;;;;;7.22;67.78;94833.69;4902282;29;20127;-82
2024/02/23 03:47:12;;;;;;;0.57;0.38;;;;;;;7.20;68.79;94830.50;4898860;29;20520;-82
2024/02/23 03:49:39;;;;;;;1.60;0.57;;;;;;;7.19;68.69;94836.66;4900025;29;20084;-82
2024/02/23 03:52:08;;;;;;;0.38;0.20;;;;;;;7.18;68.56;94845.44;4899093;29;20052;-83
2024/02/23 03:54:36;;;;;;;1.70;0.10;;;;;;;7.17;67.82;94838.66;4899411;29;20091;-81
2024/02/23 03:57:04;;;;;;;0.65;0.30;;;;;;;7.14;67.22;94862.41;4899223;29;20088;-82
2024/02/23 03:59:31;;;;;;;2.08;0.28;;;;;;;7.12;68.44;94867.00;4899098;29;20112;-81
2024/02/23 04:01:59;;;;;;;1.50;0.20;;;;;;;7.11;68.12;94865.41;4898766;29;20505;-82
2024/02/23 04:04:26;;;;;;;0.45;0.10;;;;;;;7.07;67.80;94879.78;4898577;29;20056;-83
2024/02/23 04:06:54;;;;;;;2.78;0.38;;;;;;;7.08;69.22;94881.38;4898892;29;20116;-81
2024/02/23 04:09:23;;;;;;;0.82;0.13;;;;;;;7.09;70.17;94891.53;4899149;29;20044;-81
2024/02/23 04:11:51;;;;;;;1.35;0.30;;;;;;;7.09;68.99;94877.78;4898471;29;20055;-82
2024/02/23 04:14:18;;;;;;;2.80;0.20;;;;;;;7.09;68.38;94876.00;4898230;29;20052;-81
2024/02/23 04:16:46;;;;;;;2.78;0.45;;;;;;;7.07;69.33;94872.78;4898547;29;20055;-82
2024/02/23 04:19:14;;;;;;;0.35;0.10;;;;;;;7.07;68.40;94874.59;4898595;29;20052;-82
2024/02/23 04:21:41;;;;;;;0.77;0.20;;;;;;;7.05;68.72;94876.59;4901900;29;20053;-82
2024/02/23 04:24:09;;;;;;;1.95;0.40;;;;;;;7.05;69.32;94887.75;4906573;29;20429;-81
2024/02/23 04:26:38;;;;;;;1.08;0.22;;;;;;;7.06;69.45;94901.50;4904271;29;20053;-82
2024/02/23 04:29:06;;;;;;;0.88;0.20;;;;;;;7.04;69.06;94901.72;4898951;29;20531;-82
2024/02/23 04:31:34;;;;;;;2.60;0.25;;;;;;;7.04;69.05;94906.09;4898713;29;20513;-81
2024/02/23 04:34:01;;;;;;;1.67;0.30;;;;;;;7.00;69.12;94893.53;4899080;29;20091;-81
2024/02/23 04:36:29;;;;;;;1.95;0.28;;;;;;;7.00;69.65;94896.13;4898413;29;20052;-81
2024/02/23 04:38:56;;;;;;;1.90;0.25;;;;;;;6.98;70.54;94887.75;4898461;29;20104;-81
2024/02/23 04:41:24;;;;;;;1.67;0.30;;;;;;;6.97;71.26;94875.78;4898175;29;20135;-84
2024/02/23 04:43:58;;;;;;;3.83;0.38;;;;;;;6.93;69.09;94879.81;4898618;29;20052;-82
2024/02/23 04:46:29;;;;;;;0.43;0.30;;;;;;;6.89;69.14;94880.41;4898207;29;20135;-82
2024/02/23 04:48:57;;;;;;;0.95;0.25;;;;;;;6.90;70.96;94872.41;4898294;29;20053;-81
2024/02/23 04:51:24;;;;;;;0.20;0.20;;;;;;;6.94;70.12;94876.19;4898370;29;20060;-82
2024/02/23 04:53:52;;;;;;;0.85;0.20;;;;;;;6.93;70.56;94872.03;4897914;29;20581;-83
2024/02/23 04:56:20;;;;;;;1.17;0.28;;;;;;;6.91;69.49;94876.63;4898987;29;20540;-82
2024/02/23 04:58:50;;;;;;;2.05;0.45;;;;;;;6.95;70.06;94874.41;4898417;29;20056;-82
2024/02/23 05:01:19;;;;;;;0.75;0.20;;;;;;;6.94;68.19;94860.66;4898011;29;20494;-82
2024/02/23 05:03:47;;;;;;;1.27;0.10;;;;;;;6.93;68.32;94848.69;4898205;29;20497;-83
2024/02/23 05:06:14;;;;;;;2.78;0.50;;;;;;;6.92;68.33;94844.50;4898069;29;20258;-82
2024/02/23 05:08:42;;;;;;;1.88;0.57;;;;;;;6.88;67.60;94856.25;4898006;29;20121;-82
2024/02/23 05:11:10;;;;;;;1.52;0.60;;;;;;;6.87;69.63;94865.06;4897995;29;20131;-82
2024/02/23 05:13:41;;;;;;;2.67;0.43;;;;;;;6.90;71.26;94856.06;4897568;29;20061;-82
2024/02/23 05:16:09;;;;;;;5.10;0.50;;;;;;;6.94;72.06;94858.06;4897560;29;20095;-82
2024/02/23 05:18:38;;;;;;;1.48;0.28;;;;;;;6.96;71.55;94844.91;4897781;29;20076;-82
2024/02/23 05:21:05;;;;;;;0.80;0.10;;;;;;;7.01;71.70;94852.84;4897587;29;20095;-82
2024/02/23 05:23:33;;;;;;;5.13;1.58;;;;;;;7.06;72.67;94852.25;4897208;29;20080;-82
2024/02/23 05:26:01;;;;;;;1.35;0.43;;;;;;;7.09;72.31;94851.88;4897874;29;20056;-81
2024/02/23 05:28:30;;;;;;;4.10;0.82;;;;;;;7.10;70.80;94864.59;4898119;29;20502;-81
2024/02/23 05:30:57;;;;;;;0.88;0.20;;;;;;;7.06;70.27;94866.00;4898226;29;20045;-83
2024/02/23 05:33:25;;;;;;;0.50;0.20;;;;;;;7.04;69.02;94875.81;4906462;29;20071;-82
2024/02/23 05:35:54;;;;;;;2.15;0.20;;;;;;;6.97;67.99;94875.00;4901745;29;20057;-82
2024/02/23 05:38:22;;;;;;;0.98;0.57;;;;;;;6.90;68.22;94880.19;4905221;29;20053;-83
2024/02/23 05:40:49;;;;;;;10.80;6.45;;;;;;;6.88;68.26;94865.84;4899059;29;20087;-83
2024/02/23 05:43:17;;;;;;;28.15;14.07;;;;;;;6.84;67.61;94862.84;4898840;29;20052;-83
2024/02/23 05:45:45;;;;;;;8.90;4.30;;;;;;;6.85;68.60;94882.59;4907739;29;20116;-82
2024/02/23 05:48:13;;;;;;;4.45;1.83;;;;;;;6.84;70.73;94883.56;4898044;29;20044;-81
2024/02/23 05:50:40;;;;;;;1.85;0.30;;;;;;;6.88;70.25;94896.94;4898056;29;20056;-81
2024/02/23 05:53:10;;;;;;;2.72;0.30;;;;;;;6.93;71.64;94904.91;4897679;29;20183;-80
2024/02/23 05:55:37;;;;;;;0.75;0.22;;;;;;;6.95;70.22;94893.38;4901464;29;20056;-80
2024/02/23 05:58:05;;;;;;;1.15;0.30;;;;;;;6.89;69.79;94907.13;4896138;29;20109;-80
2024/02/23 06:00:32;;;;;;;2.20;0.47;;;;;;;6.86;69.93;94925.66;4883357;29;20081;-80
2024/02/23 06:03:00;;;;;;;3.03;0.85;;;;;;;6.80;69.35;94936.84;4894850;29;20509;-80
2024/02/23 06:05:28;;;;;;;1.15;0.30;;;;;;;6.79;70.06;94936.00;4902193;29;20133;-81
2024/02/23 06:07:56;;;;;;;3.05;0.60;;;;;;;6.73;69.02;94921.25;4904322;29;20084;-84
2024/02/23 06:10:25;;;;;;;1.52;0.35;;;;;;;6.69;70.45;94917.50;4903942;29;20140;-81
2024/02/23 06:12:53;;;;;;;0.95;0.50;;;;;;;6.72;71.46;94916.28;4902684;29;20052;-81
2024/02/23 06:15:23;;;;;;;4.03;0.90;;;;;;;6.76;70.38;94920.06;4897941;29;20545;-83
2024/02/23 06:17:51;;;;;;;1.75;0.70;;;;;;;6.78;71.78;94910.31;4902377;29;20112;-79
2024/02/23 06:20:19;;;;;;;2.25;1.10;;;;;;;6.81;72.43;94902.91;4900885;29;20075;-77
2024/02/23 06:22:47;;;;;;;2.38;0.55;;;;;;;6.79;72.59;94898.94;4899086;29;20048;-76
2024/02/23 06:25:15;;;;;;;2.08;0.40;;;;;;;6.75;71.87;94900.31;4893835;29;20079;-81
2024/02/23 06:27:44;;;;;;;1.10;0.38;;;;;;;6.75;70.89;94910.69;4902594;29;20122;-81
2024/02/23 06:30:12;;;;;;;2.03;0.70;;;;;;;6.81;72.98;94908.09;4899760;29;20056;-81
2024/02/23 06:32:40;;;;;;;2.47;0.57;;;;;;;6.86;70.94;94920.47;4909878;29;20084;-82
2024/02/23 06:35:09;;;;;;;4.18;0.40;;;;;;;6.89;72.63;94917.50;4920272;29;20041;-86
2024/02/23 06:37:36;;;;;;;2.58;0.50;;;;;;;6.96;72.80;94928.66;4921786;29;20076;-84
2024/02/23 06:40:07;;;;;;;1.05;0.63;;;;;;;7.01;72.86;94933.22;4912597;29;20052;-80
2024/02/23 06:42:34;;;;;;;3.88;1.67;;;;;;;7.04;72.40;94926.84;4900368;29;20052;-81
2024/02/23 06:45:04;;;;;;;2.45;1.20;;;;;;;7.02;67.98;94927.06;4900374;29;20057;-82
2024/02/23 06:47:31;;;;;;;1.58;0.57;;;;;;;6.99;71.31;94917.88;4900940;29;20072;-81
2024/02/23 06:50:00;;;;;;;1.23;0.68;;;;;;;6.95;68.46;94913.28;4900513;29;20481;-81
2024/02/23 06:52:28;;;;;;;1.45;0.52;;;;;;;6.93;69.47;94910.09;4921691;23;20063;-77
2024/02/23 06:54:56;;;;;;;2.97;0.68;;;;;;;6.93;68.02;94910.91;4923124;29;20516;-82
2024/02/23 06:57:25;;;;;;;2.40;0.50;;;;;;;6.93;66.42;94910.09;4924441;29;20080;-79
2024/02/23 06:59:53;;;;;;;1.33;0.60;;;;;;;6.88;67.50;94918.47;4921406;29;20086;-84
2024/02/23 07:02:22;;;;;;;1.67;0.50;;;;;;;6.88;71.97;94915.88;4920538;29;20086;-81
2024/02/23 07:04:49;;;;;;;1.65;0.50;;;;;;;6.94;72.57;94922.06;4903019;29;20063;-84
2024/02/23 07:07:17;;;;;;;3.10;1.02;;;;;;;6.92;69.43;94918.88;4901721;29;20112;-84
2024/02/23 07:09:44;;;;;;;4.85;2.05;;;;;;;6.92;67.75;94927.44;4901734;29;20186;-84
2024/02/23 07:12:13;;;;;;;4.18;1.30;;;;;;;6.94;70.74;94929.84;4901483;29;20044;-81
2024/02/23 07:14:41;;;;;;;2.67;0.95;;;;;;;7.00;72.37;94932.44;4900907;29;20048;-83
2024/02/23 07:17:08;;;;;;;4.18;0.75;;;;;;;6.96;67.71;94943.41;4901260;29;20121;-82
2024/02/23 07:19:38;;;;;;;1.85;0.73;;;;;;;6.83;65.75;94967.53;4901156;29;20060;-85
2024/02/23 07:22:05;;;;;;;1.30;0.40;;;;;;;6.76;66.05;94977.09;4901227;29;20055;-85
2024/02/23 07:24:33;;;;;;;2.90;1.00;;;;;;;6.72;67.84;94960.34;4900925;29;20482;-81
2024/02/23 07:27:00;;;;;;;1.80;0.43;;;;;;;6.63;66.69;94961.53;4900924;29;20144;-78
2024/02/23 07:29:28;;;;;;;2.45;0.80;;;;;;;6.54;66.82;94958.31;4901323;29;20060;-85
2024/02/23 07:31:55;;;;;;;3.20;0.95;;;;;;;6.43;66.34;94951.94;4900736;29;20057;-86
2024/02/23 07:34:23;;;;;;;1.08;0.57;;;;;;;6.38;67.24;94964.66;4900162;29;20059;-83
2024/02/23 07:36:54;;;;;;;1.05;0.63;;;;;;;6.38;66.86;94951.69;4900888;29;20052;-81
2024/02/23 07:39:21;;;;;;;1.15;0.40;;;;;;;6.37;66.95;94963.06;4901395;29;20053;-82
2024/02/23 07:41:49;;;;;;;3.45;0.82;;;;;;;6.34;67.03;94973.78;4900972;29;20049;-79
2024/02/23 07:44:17;;;;;;;1.75;0.60;;;;;;;6.27;69.82;94973.78;4900724;29;20115;-77
2024/02/23 07:46:44;;;;;;;1.80;0.50;;;;;;;6.27;69.56;94976.38;4901548;29;20532;-81
2024/02/23 07:49:12;;;;;;;1.33;0.47;;;;;;;6.27;68.63;94971.19;4902961;29;20139;-81
2024/02/23 07:51:39;;;;;;;0.50;0.38;;;;;;;6.30;68.82;94967.44;4903060;29;20064;-79
2024/02/23 07:54:08;;;;;;;1.17;0.60;;;;;;;6.29;67.55;94964.03;4902238;29;20102;-81
2024/02/23 07:56:36;;;;;;;4.53;0.70;;;;;;;6.24;67.37;94955.25;4901881;29;20497;-81
2024/02/23 07:59:04;;;;;;;2.63;1.02;;;;;;;6.24;69.65;94950.88;4902351;29;20139;-80
2024/02/23 08:01:31;;;;;;;2.45;0.55;;;;;;;6.30;69.44;94955.28;4901675;29;20065;-79
2024/02/23 08:03:59;;;;;;;5.30;0.95;;;;;;;6.31;67.76;94951.69;4902678;29;20144;-77
2024/02/23 08:06:26;;;;;;;1.73;0.70;;;;;;;6.30;68.06;94946.72;4902530;29;20077;-77
2024/02/23 08:08:55;;;;;;;5.00;1.02;;;;;;;6.35;70.37;94949.50;4902450;29;20238;-78
2024/02/23 08:11:24;;;;;;;2.88;0.65;;;;;;;6.42;71.99;94957.28;4901821;29;20436;-79
2024/02/23 08:13:51;;;;;;;3.13;1.10;;;;;;;6.45;69.01;94951.72;4901429;29;20048;-76
2024/02/23 08:16:19;;;;;;;1.02;0.60;;;;;;;6.43;67.99;94956.28;4901816;29;20052;-77
2024/02/23 08:18:47;;;;;;;1.75;0.70;;;;;;;6.42;67.80;94957.28;4902089;29;20091;-79
2024/02/23 08:21:14;;;;;;;1.27;0.68;;;;;;;6.39;67.55;94958.50;4901266;29;20112;-77
2024/02/23 08:23:42;;;;;;;1.23;0.77;;;;;;;6.40;68.66;94967.84;4901628;29;20068;-77
2024/02/23 08:26:10;;;;;;;4.13;0.95;;;;;;;6.47;71.91;94963.50;4901061;29;20070;-78
2024/02/23 08:28:39;;;;;;;2.60;0.68;;;;;;;6.52;69.67;94966.28;4901976;29;20048;-78
2024/02/23 08:31:06;;;;;;;2.53;0.45;;;;;;;6.54;70.43;94968.69;4901509;29;20071;-78
2024/02/23 08:33:34;;;;;;;1.83;0.50;;;;;;;6.57;70.71;94965.69;4900973;29;20070;-76
2024/02/23 08:36:05;;;;;;;0.80;0.50;;;;;;;6.58;70.57;94965.50;4900900;29;20501;-76
2024/02/23 08:38:33;;;;;;;4.00;0.40;;;;;;;6.58;68.96;94975.88;4901146;29;20053;-76
2024/02/23 08:41:03;;;;;;;0.88;0.40;;;;;;;6.54;69.34;94987.63;4901113;29;20056;-78
2024/02/23 08:43:30;;;;;;;3.05;0.57;;;;;;;6.52;70.58;94983.63;4900465;29;20124;-77
2024/02/23 08:45:59;;;;;;;2.35;1.13;;;;;;;6.52;69.11;94976.66;4900029;29;20600;-79
2024/02/23 08:48:34;;;;;;;2.60;0.50;;;;;;;6.53;68.94;94983.41;4900444;29;20060;-77
2024/02/23 08:51:02;;;;;;;2.88;0.60;;;;;;;6.54;69.07;94979.06;4900654;29;20127;-77
2024/02/23 08:53:29;;;;;;;2.55;0.75;;;;;;;6.55;68.82;94976.25;4899583;29;20049;-76
2024/02/23 08:55:57;;;;;;;5.28;1.52;;;;;;;6.57;69.68;94979.44;4900092;29;20056;-78
2024/02/23 08:58:25;;;;;;;1.25;0.77;;;;;;;6.57;69.56;94976.84;4900166;29;20080;-77
2024/02/23 09:00:52;;;;;;;0.88;0.40;;;;;;;6.57;68.25;94970.88;4900455;29;20517;-77
2024/02/23 09:03:22;;;;;;;3.03;1.00;;;;;;;6.55;71.55;94978.84;4899469;29;20056;-78
2024/02/23 09:05:51;;;;;;;2.75;1.50;;;;;;;6.59;70.95;94981.84;4899469;29;20064;-77
2024/02/23 09:08:19;;;;;;;9.43;1.42;;;;;;;6.60;72.04;94979.06;4899491;29;20052;-77
2024/02/23 09:10:46;;;;;;;2.47;0.70;;;;;;;6.57;69.78;94971.66;4900025;29;20433;-78
2024/02/23 09:13:15;;;;;;;3.35;1.30;;;;;;;6.55;68.30;94968.47;4899831;29;20079;-78
2024/02/23 09:15:43;;;;;;;3.65;0.70;;;;;;;6.56;68.77;94974.47;4899858;29;20064;-78
2024/02/23 09:18:10;;;;;;;1.05;0.80;;;;;;;6.54;68.24;94979.84;4899793;29;20139;-76
2024/02/23 09:20:39;;;;;;;5.68;1.10;;;;;;;6.58;70.39;94982.81;4900065;29;20056;-82
2024/02/23 09:23:07;;;;;;;1.67;0.50;;;;;;;6.58;68.91;94978.47;4900520;29;20497;-78
2024/02/23 09:25:35;;;;;;;0.50;0.50;;;;;;;6.54;68.58;94992.78;4900747;29;20057;-77
2024/02/23 09:28:02;;;;;;;1.40;0.73;;;;;;;6.52;69.49;94989.59;4900068;29;20076;-77
2024/02/23 09:30:30;;;;;;;2.90;0.80;;;;;;;6.58;70.56;94998.38;4900479;29;20076;-77
2024/02/23 09:32:57;;;;;;;0.70;0.50;;;;;;;6.59;69.45;94997.38;4901011;29;20095;-79
2024/02/23 09:35:25;;;;;;;0.55;0.30;;;;;;;6.55;67.93;94991.78;4900561;29;20048;-77
2024/02/23 09:37:54;;;;;;;1.48;0.47;;;;;;;6.53;68.60;94988.59;4902011;29;20060;-77
2024/02/23 09:40:22;;;;;;;4.22;0.70;;;;;;;6.56;70.19;94992.59;4899947;29;20053;-76
2024/02/23 09:42:55;;;;;;;2.55;0.40;;;;;;;6.59;69.10;94982.63;4900278;29;20524;-78
2024/02/23 09:45:22;;;;;;;;;;;;;;;6.61;70.00;94990.22;4900646;29;20405;-77
2024/02/23 09:47:50;;;;;;;1.10;0.45;;;;;;;6.59;68.63;94993.00;4899454;29;19924;-77
2024/02/23 09:50:21;;;;;;;1.23;0.50;;;;;;;6.56;67.69;94992.59;4899938;29;20052;-77
2024/02/23 09:52:50;;;;;;;2.30;0.65;;;;;;;6.59;68.61;94992.19;4900607;29;20052;-77
2024/02/23 09:55:20;;;;;;;0.85;0.35;;;;;;;6.66;68.92;95002.59;4900058;29;20060;-79
2024/02/23 09:57:51;;;;;;;1.17;0.50;;;;;;;6.73;71.70;95003.38;4899815;29;20059;-77
2024/02/23 10:00:20;;;;;;;1.38;0.70;;;;;;;6.85;73.34;95007.00;4900081;29;20604;-77
2024/02/23 10:02:48;;;;;;;1.52;0.85;;;;;;;6.88;72.11;95006.59;4899981;29;20104;-77
2024/02/23 10:05:17;;;;;;;2.13;0.95;;;;;;;6.87;70.91;95007.59;4900141;29;20496;-77
2024/02/23 10:07:46;;;;;;;2.40;0.47;;;;;;;6.83;68.84;95001.22;4900312;29;20143;-78
2024/02/23 10:10:14;;;;;;;2.58;0.50;;;;;;;6.72;69.90;95012.16;4900398;29;20052;-78
2024/02/23 10:12:43;;;;;;;1.00;0.80;;;;;;;6.71;70.26;95026.91;4900945;29;20064;-78
2024/02/23 10:15:11;;;;;;;2.00;0.80;;;;;;;6.72;71.58;95025.13;4899751;29;20048;-77
2024/02/23 10:17:39;;;;;;;3.65;0.80;;;;;;;6.72;68.93;95017.34;4900072;29;20477;-77
2024/02/23 10:20:08;;;;;;;1.27;0.40;;;;;;;6.74;70.37;95025.72;4901629;29;20260;-78
2024/02/23 10:22:36;;;;;;;6.40;0.68;;;;;;;6.79;68.61;95028.50;4901621;29;20061;-76
2024/02/23 10:25:04;;;;;;;0.73;0.30;;;;;;;6.84;67.47;95041.69;4900288;29;20084;-80
2024/02/23 10:27:32;;;;;;;0.38;0.20;;;;;;;6.90;68.19;95019.38;4900015;29;20052;-78
2024/02/23 10:30:02;;;;;;;2.10;0.60;;;;;;;6.94;67.27;95025.75;4899686;29;20049;-77
2024/02/23 10:32:31;;;;;;;3.80;0.90;;;;;;;6.93;66.69;95024.97;4899658;29;20083;-77
2024/02/23 10:35:01;;;;;;;1.65;0.55;;;;;;;6.94;68.35;95026.53;4898844;29;20084;-77
2024/02/23 10:37:30;;;;;;;1.48;0.52;;;;;;;6.95;68.44;95033.34;4899456;29;20049;-78
2024/02/23 10:39:59;;;;;;;0.75;0.50;;;;;;;6.93;66.75;95030.16;4900565;29;20497;-77
2024/02/23 10:42:33;;;;;;;3.58;0.70;;;;;;;6.88;65.44;95031.72;4902728;29;20048;-77
2024/02/23 10:45:04;;;;;;;2.47;0.68;;;;;;;6.88;66.12;95032.50;4902498;29;20108;-78
2024/02/23 10:47:32;;;;;;;3.72;0.57;;;;;;;6.85;65.64;95022.56;4908151;29;20052;-79
2024/02/23 10:50:01;;;;;;;1.92;1.20;;;;;;;6.82;69.66;95030.69;4908388;29;20108;-79
2024/02/23 10:52:30;;;;;;;3.53;0.50;;;;;;;6.86;68.53;95015.56;4908884;29;20087;-79
2024/02/23 10:55:01;;;;;;;1.98;0.82;;;;;;;6.88;67.32;95018.75;4907748;29;20109;-80
2024/02/23 10:57:28;;;;;;;1.80;0.70;;;;;;;6.86;67.67;95016.34;4908010;29;20081;-79
2024/02/23 10:59:56;;;;;;;1.13;0.60;;;;;;;6.82;66.25;95004.78;4908277;29;20053;-79
2024/02/23 11:02:28;;;;;;;0.88;0.57;;;;;;;6.80;67.58;95010.19;4907784;29;20520;-78
2024/02/23 11:05:00;;;;;;;5.60;0.90;;;;;;;6.81;66.02;95018.75;4907458;29;20109;-79
2024/02/23 11:07:30;;;;;;;3.08;0.60;;;;;;;6.84;66.60;95020.94;4907817;29;20057;-78
2024/02/23 11:09:59;;;;;;;3.70;0.93;;;;;;;6.82;65.20;95012.56;4906826;29;20094;-79
2024/02/23 11:12:30;;;;;;;3.40;0.60;;;;;;;6.84;64.86;95010.56;4906551;29;20079;-78
2024/02/23 11:14:59;;;;;;;1.15;0.60;;;;;;;6.86;64.76;95015.56;4906242;29;20107;-78
2024/02/23 11:17:31;;;;;;;0.70;0.30;;;;;;;6.87;66.85;95005.00;4906429;29;20067;-78
2024/02/23 11:19:59;;;;;;;1.45;0.50;;;;;;;6.85;64.69;95009.59;4906431;29;20060;-78
2024/02/23 11:22:29;;;;;;;2.17;0.70;;;;;;;6.86;66.16;95002.59;4905666;29;20517;-80
2024/02/23 11:25:08;;;;;;;1.58;0.70;;;;;;;6.83;64.75;95008.19;4904766;29;20429;-78
2024/02/23 11:27:36;;;;;;;1.05;0.57;;;;;;;6.81;66.53;95009.19;4904613;29;20044;-77
2024/02/23 11:30:06;;;;;;;2.65;0.50;;;;;;;6.86;67.94;95016.34;4904776;29;20060;-82
2024/02/23 11:32:41;;;;;;;4.07;0.73;;;;;;;6.85;69.06;95017.38;4904312;29;20063;-79
2024/02/23 11:35:12;;;;;;;1.08;0.40;;;;;;;6.85;66.65;95016.56;4903985;29;20139;-82
2024/02/23 11:37:47;;;;;;;3.45;0.65;;;;;;;6.83;64.28;95013.38;4903711;29;20059;-80
2024/02/23 11:40:15;;;;;;;2.10;1.02;;;;;;;6.80;66.67;95009.41;4903062;29;20049;-81
2024/02/23 11:42:43;;;;;;;1.05;0.70;;;;;;;6.80;65.19;95014.56;4902914;29;20108;-80
2024/02/23 11:45:11;;;;;;;1.77;0.50;;;;;;;6.78;64.22;95011.38;4902240;29;20139;-83
2024/02/23 11:47:40;;;;;;;1.33;0.60;;;;;;;6.76;65.80;95003.78;4902780;29;20164;-78